Cape Providence — 3EWQ — position and weather

sailwx.info

Track history (hours):
 
Tides and Currents Weather Stations Pressure Air Temp Water Temp Dewpoint Dewpoint Depression Visibility Wind Speed Wind Dir Waves Ship Positions

Cape Providence

Last reported at 2017-Jun-22 18:54 UTC. Time now 2017-Jul-24 14:23 UTC.
Position S 02°09' W 044°10'.
Warning: this ship's position is 31 days out of date.

Length 292 m; draft 18.5 m.

Type: Cargo ship. MMSI: 372773000.

Date/timePositionNaut miles runAvg speedWind from/ knotsBaromVisibWave heightAir tempDewpointWater temp
2017-Jun-22 18:54S 02°09' W 044°10'3 8.2
2017-Jun-22 18:30S 02°12' W 044°11'4 7.7
2017-Jun-22 18:00S 02°15' W 044°14'4 7.8
2017-Jun-22 17:30S 02°18' W 044°16'4 7.7
2017-Jun-22 17:00S 02°21' W 044°18'4 7.9
2017-Jun-22 16:30S 02°25' W 044°20'5 9.3
2017-Jun-22 16:00S 02°29' W 044°22'4 8.5
2017-Jun-22 15:30S 02°33' W 044°23'1 1.7
2017-Jun-22 14:57S 02°34' W 044°23'0 0.0
2017-Jun-22 13:57S 02°34' W 044°23'0 0.0
2017-Jun-22 13:30S 02°34' W 044°23'0 0.0
2017-Jun-22 12:54S 02°34' W 044°23'0 0.0
2017-Jun-22 12:24S 02°34' W 044°23'0 0.0
2017-Jun-22 11:45S 02°34' W 044°23'0 0.0
2017-Jun-22 04:28S 02°34' W 044°23'0 0.0
2017-Jun-22 03:49S 02°34' W 044°23'0 0.0
2017-Jun-22 03:30S 02°34' W 044°23'0 0.0
2017-Jun-22 02:55S 02°34' W 044°23'0 0.0
2017-Jun-22 02:30S 02°34' W 044°23'0 0.0
2017-Jun-22 01:42S 02°34' W 044°23'0 0.0
2017-Jun-22 01:25S 02°34' W 044°23'0 0.0
2017-Jun-22 00:48S 02°34' W 044°23'0 0.0
2017-Jun-22 00:28S 02°34' W 044°23'0 0.0
2017-Jun-22 00:00S 02°34' W 044°23'0 0.0
2017-Jun-21 23:16S 02°34' W 044°23'0 0.0
2017-Jun-21 23:00S 02°34' W 044°23'0 0.0
2017-Jun-21 22:30S 02°34' W 044°23'0 0.0
2017-Jun-21 22:00S 02°34' W 044°23'0 0.0
2017-Jun-21 20:46S 02°34' W 044°23'0 0.0
2017-Jun-21 20:27S 02°34' W 044°23'0 0.0
2017-Jun-21 20:00S 02°34' W 044°23'0 0.0
2017-Jun-21 19:25S 02°34' W 044°23'0 0.0
2017-Jun-21 19:00S 02°34' W 044°23'0 0.0
2017-Jun-21 18:30S 02°34' W 044°23'0 0.0
2017-Jun-21 18:00S 02°34' W 044°23'0 0.0
2017-Jun-21 17:30S 02°34' W 044°23'0 0.0
2017-Jun-21 17:00S 02°34' W 044°23'0 0.0
2017-Jun-21 16:30S 02°34' W 044°23'0 0.0
2017-Jun-21 16:00S 02°34' W 044°23'0 0.0
2017-Jun-21 15:27S 02°34' W 044°23'0 0.0
2017-Jun-21 15:00S 02°34' W 044°23'1 1.3
2017-Jun-21 14:00S 02°33' W 044°24'4 8.4
2017-Jun-21 13:30S 02°29' W 044°22'4 8.5
2017-Jun-21 13:00S 02°26' W 044°19'2 4.9
2017-Jun-21 12:30S 02°25' W 044°17'1 1.1
2017-Jun-21 11:59S 02°24' W 044°17'0 0.0
2017-Jun-21 11:29S 02°24' W 044°17'0 0.0
2017-Jun-21 10:59S 02°24' W 044°17'0 0.1
2017-Jun-21 10:29S 02°24' W 044°17'0 0.1
2017-Jun-21 09:59S 02°24' W 044°17'0 0.1
2017-Jun-21 09:29S 02°24' W 044°17'0 0.3
2017-Jun-21 08:59S 02°24' W 044°17'0 0.1
2017-Jun-21 08:29S 02°24' W 044°17'0 0.2
2017-Jun-21 07:59S 02°24' W 044°17'0 0.1
2017-Jun-21 07:29S 02°24' W 044°17'0 0.0
2017-Jun-21 06:57S 02°24' W 044°17'0 0.0
2017-Jun-21 06:29S 02°24' W 044°17'0 0.1
2017-Jun-21 05:59S 02°24' W 044°17'0 0.0
2017-Jun-21 05:29S 02°24' W 044°17'0 0.1
2017-Jun-21 04:59S 02°25' W 044°17'0 0.0
2017-Jun-21 04:30S 02°25' W 044°17'0 0.0
2017-Jun-21 03:59S 02°25' W 044°17'0 0.1
2017-Jun-21 03:29S 02°25' W 044°17'0 0.2
2017-Jun-21 02:57S 02°24' W 044°17'0 0.1
2017-Jun-21 01:39S 02°24' W 044°17'0 0.1
2017-Jun-21 01:18S 02°24' W 044°17'0 0.1
2017-Jun-21 00:51S 02°24' W 044°17'0 0.0
2017-Jun-21 00:30S 02°24' W 044°17'0 0.0
2017-Jun-20 23:57S 02°24' W 044°17'0 0.0
2017-Jun-20 23:27S 02°24' W 044°17'0 0.0
2017-Jun-20 22:59S 02°24' W 044°17'0 0.0
2017-Jun-20 22:29S 02°24' W 044°17'0 0.1
2017-Jun-20 21:59S 02°24' W 044°17'0 0.0
2017-Jun-20 21:29S 02°24' W 044°17'0 0.2
2017-Jun-20 20:59S 02°24' W 044°17'0 0.2
2017-Jun-20 20:27S 02°24' W 044°17'0 0.1
2017-Jun-20 20:00S 02°24' W 044°17'0 0.1
2017-Jun-20 19:15S 02°24' W 044°17'0 0.0
2017-Jun-20 18:54S 02°24' W 044°17'0 0.0
2017-Jun-20 18:27S 02°24' W 044°17'0 0.0
2017-Jun-20 17:59S 02°24' W 044°17'0 0.1
2017-Jun-20 17:29S 02°24' W 044°17'0 0.1
2017-Jun-20 16:59S 02°24' W 044°17'0 0.0
2017-Jun-20 16:29S 02°24' W 044°17'0 0.0
2017-Jun-20 15:59S 02°24' W 044°17'0 0.1
2017-Jun-20 15:29S 02°24' W 044°17'0 0.1
2017-Jun-20 14:59S 02°24' W 044°17'0 0.2
2017-Jun-20 14:29S 02°24' W 044°17'0 0.2
2017-Jun-20 13:29S 02°24' W 044°17'0 0.0
2017-Jun-20 12:20S 02°24' W 044°17'0 0.1
2017-Jun-20 11:59S 02°24' W 044°17'0 0.0
2017-Jun-20 11:29S 02°24' W 044°17'0 0.0
2017-Jun-20 11:00S 02°24' W 044°17'0 0.0
2017-Jun-20 10:26S 02°24' W 044°17'0 0.1
2017-Jun-20 09:59S 02°24' W 044°17'0 0.1
2017-Jun-20 09:29S 02°24' W 044°17'0 0.0
2017-Jun-20 08:59S 02°24' W 044°17'0 0.1
2017-Jun-20 08:29S 02°24' W 044°17'0 0.1
2017-Jun-20 07:59S 02°24' W 044°17'0 0.4
2017-Jun-20 07:29S 02°24' W 044°17'0 0.1
2017-Jun-20 06:59S 02°24' W 044°17'0 0.0
2017-Jun-20 06:29S 02°24' W 044°17'0 0.0
2017-Jun-20 05:59S 02°24' W 044°17'0 0.3
2017-Jun-20 05:29S 02°24' W 044°17'0 0.4
2017-Jun-20 04:59S 02°24' W 044°17'0 0.1
2017-Jun-20 04:29S 02°24' W 044°17'0 0.0
2017-Jun-20 03:59S 02°24' W 044°17'0 0.0
2017-Jun-20 03:29S 02°24' W 044°17'0 0.0
2017-Jun-20 02:59S 02°24' W 044°17'0 0.0
2017-Jun-20 02:29S 02°24' W 044°17'0 0.0
2017-Jun-20 01:59S 02°24' W 044°17'0 0.2
2017-Jun-20 01:29S 02°24' W 044°17'0 0.3
2017-Jun-20 00:59S 02°24' W 044°17'0 0.1
2017-Jun-20 00:29S 02°24' W 044°17'0 0.1
2017-Jun-19 23:59S 02°24' W 044°17'0 0.0
2017-Jun-19 23:29S 02°24' W 044°17'0 0.1
2017-Jun-19 23:00S 02°24' W 044°17'0 0.0
2017-Jun-19 22:29S 02°24' W 044°17'0 0.1
2017-Jun-19 21:59S 02°24' W 044°17'0 0.1
2017-Jun-19 21:26S 02°24' W 044°17'0 0.0
2017-Jun-19 20:59S 02°24' W 044°17'0 0.1
2017-Jun-19 20:29S 02°24' W 044°17'0 0.3
2017-Jun-19 19:59S 02°24' W 044°17'0 0.3
2017-Jun-19 19:29S 02°24' W 044°17'0 0.2
2017-Jun-19 18:59S 02°24' W 044°17'0 0.1
2017-Jun-19 18:29S 02°24' W 044°17'0 0.0
2017-Jun-19 18:00S 02°24' W 044°17'0 0.0
2017-Jun-19 17:29S 02°24' W 044°17'0 0.1
2017-Jun-19 16:59S 02°24' W 044°17'0 0.0
2017-Jun-19 16:29S 02°24' W 044°17'0 0.0
2017-Jun-19 15:59S 02°24' W 044°17'0 0.0
2017-Jun-19 15:29S 02°24' W 044°17'0 0.0
2017-Jun-19 14:59S 02°24' W 044°17'0 0.0
2017-Jun-18 20:47S 02°24' W 044°17'0 0.1
2017-Jun-18 20:29S 02°24' W 044°17'0 0.0
2017-Jun-18 19:59S 02°24' W 044°17'0 0.0
2017-Jun-18 19:29S 02°24' W 044°17'0 0.3
2017-Jun-18 18:59S 02°24' W 044°17'0 0.2
2017-Jun-18 18:29S 02°24' W 044°17'0 0.2
2017-Jun-18 17:59S 02°24' W 044°17'0 0.2
2017-Jun-18 17:27S 02°24' W 044°17'0 0.1
2017-Jun-18 16:59S 02°24' W 044°17'0 0.1
2017-Jun-18 16:29S 02°24' W 044°17'0 0.0
2017-Jun-18 15:50S 02°24' W 044°17'0 0.0
2017-Jun-18 15:29S 02°24' W 044°17'0 0.0
2017-Jun-18 14:59S 02°24' W 044°17'0 0.0
2017-Jun-18 14:29S 02°24' W 044°17'0 0.0
2017-Jun-18 13:59S 02°24' W 044°17'0 0.0
2017-Jun-18 13:29S 02°24' W 044°17'0 0.1
2017-Jun-18 12:59S 02°24' W 044°17'0 0.2
2017-Jun-18 12:29S 02°24' W 044°17'0 0.4
2017-Jun-18 11:59S 02°24' W 044°17'0 0.1
2017-Jun-18 11:29S 02°24' W 044°17'0 0.0
2017-Jun-18 10:59S 02°24' W 044°17'0 0.0
2017-Jun-18 10:29S 02°24' W 044°17'0 0.0
2017-Jun-18 09:59S 02°24' W 044°17'0 0.0
2017-Jun-18 09:29S 02°24' W 044°17'0 0.0
2017-Jun-18 09:00S 02°24' W 044°17'0 0.0
2017-Jun-18 08:29S 02°24' W 044°17'0 0.1
2017-Jun-18 07:59S 02°24' W 044°17'0 0.1
2017-Jun-18 07:29S 02°24' W 044°17'0 0.0
2017-Jun-18 06:59S 02°24' W 044°17'0 0.2
2017-Jun-18 06:29S 02°24' W 044°17'0 0.1
2017-Jun-18 05:59S 02°24' W 044°17'0 0.4
2017-Jun-18 05:29S 02°24' W 044°17'0 0.1
2017-Jun-18 04:59S 02°24' W 044°17'0 0.1
2017-Jun-18 04:29S 02°24' W 044°17'0 0.0
2017-Jun-18 03:59S 02°24' W 044°17'0 0.0
2017-Jun-18 03:29S 02°24' W 044°17'0 0.0
2017-Jun-18 02:59S 02°24' W 044°17'0 0.0
2017-Jun-18 02:29S 02°24' W 044°17'0 0.0
2017-Jun-18 01:59S 02°24' W 044°17'0 0.0
2017-Jun-18 01:29S 02°24' W 044°17'0 0.0
2017-Jun-18 00:59S 02°24' W 044°17'0 0.0
2017-Jun-18 00:29S 02°24' W 044°17'0 0.1
2017-Jun-17 23:59S 02°25' W 044°17'0 0.2
2017-Jun-17 23:29S 02°24' W 044°17'0 0.4
2017-Jun-17 22:59S 02°24' W 044°17'0 0.0
2017-Jun-17 22:29S 02°24' W 044°17'0 0.1
2017-Jun-17 21:59S 02°24' W 044°17'0 0.0
2017-Jun-17 21:29S 02°24' W 044°17'0 0.0
2017-Jun-17 20:59S 02°24' W 044°17'0 0.1
2017-Jun-17 20:29S 02°24' W 044°17'0 0.0
2017-Jun-17 19:59S 02°24' W 044°17'0 0.1
2017-Jun-17 19:29S 02°24' W 044°17'0 0.0
2017-Jun-17 18:59S 02°24' W 044°17'0 0.1
2017-Jun-17 18:29S 02°24' W 044°17'0 0.1
2017-Jun-17 17:59S 02°24' W 044°17'0 0.2
2017-Jun-17 17:29S 02°24' W 044°17'0 0.0
2017-Jun-17 16:59S 02°24' W 044°17'0 0.2
2017-Jun-17 16:29S 02°24' W 044°17'0 0.1
2017-Jun-17 15:59S 02°24' W 044°17'0 0.1
2017-Jun-17 15:29S 02°24' W 044°17'0 0.0
2017-Jun-17 14:59S 02°24' W 044°17'0 0.0
2017-Jun-17 13:59S 02°24' W 044°17'0 0.0
2017-Jun-17 13:29S 02°24' W 044°17'0 0.0
2017-Jun-17 12:59S 02°24' W 044°17'0 0.0
2017-Jun-17 12:29S 02°24' W 044°17'0 0.0
2017-Jun-17 11:59S 02°24' W 044°17'0 0.1
2017-Jun-17 11:26S 02°24' W 044°17'0 0.4
2017-Jun-17 10:59S 02°24' W 044°17'0 0.1
2017-Jun-17 10:29S 02°24' W 044°17'0 0.1
2017-Jun-17 09:59S 02°24' W 044°17'0 0.1
2017-Jun-17 09:29S 02°24' W 044°17'0 0.0
2017-Jun-17 08:59S 02°24' W 044°17'0 0.0
2017-Jun-17 08:29S 02°24' W 044°17'0 0.1
2017-Jun-17 07:59S 02°24' W 044°17'0 0.1
2017-Jun-17 07:29S 02°24' W 044°17'0 0.1
2017-Jun-17 06:59S 02°24' W 044°17'0 0.0
2017-Jun-17 06:29S 02°24' W 044°17'0 0.0
2017-Jun-17 05:59S 02°24' W 044°17'0 0.1
2017-Jun-17 05:29S 02°24' W 044°17'0 0.4
2017-Jun-17 04:59S 02°24' W 044°17'0 0.3
2017-Jun-17 04:20S 02°24' W 044°17'0 0.1
2017-Jun-17 03:59S 02°24' W 044°17'0 0.1
2017-Jun-17 03:29S 02°25' W 044°17'0 0.1
2017-Jun-17 02:59S 02°24' W 044°17'0 0.0
2017-Jun-17 02:29S 02°24' W 044°17'0 0.0
2017-Jun-17 01:59S 02°24' W 044°17'0 0.0
2017-Jun-17 01:29S 02°24' W 044°17'0 0.0
2017-Jun-17 00:59S 02°24' W 044°17'0 0.0
2017-Jun-17 00:29S 02°24' W 044°17'0 0.0
2017-Jun-16 23:59S 02°24' W 044°17'0 0.0
2017-Jun-16 23:29S 02°24' W 044°17'0 0.1
2017-Jun-16 22:59S 02°24' W 044°17'0 0.1
2017-Jun-16 22:29S 02°24' W 044°17'0 0.3
2017-Jun-16 21:56S 02°24' W 044°17'0 0.3
2017-Jun-16 21:29S 02°24' W 044°17'0 0.1
2017-Jun-16 20:59S 02°24' W 044°17'0 0.1
2017-Jun-16 20:29S 02°24' W 044°17'0 0.1
2017-Jun-16 20:00S 02°24' W 044°17'0 0.1
2017-Jun-16 19:30S 02°24' W 044°17'0 0.0
2017-Jun-16 18:59S 02°24' W 044°17'0 0.2
2017-Jun-16 18:30S 02°24' W 044°17'0 0.0
2017-Jun-16 18:00S 02°24' W 044°17'0 0.0
2017-Jun-16 17:26S 02°24' W 044°17'0 0.1
2017-Jun-16 16:59S 02°24' W 044°17'0 0.0
2017-Jun-16 16:29S 02°24' W 044°17'0 0.2
2017-Jun-16 15:59S 02°24' W 044°17'0 0.3
2017-Jun-16 15:29S 02°24' W 044°17'0 0.2
2017-Jun-16 14:59S 02°24' W 044°17'0 0.1
2017-Jun-16 13:59S 02°24' W 044°17'0 0.1
2017-Jun-16 13:29S 02°24' W 044°17'0 0.0
2017-Jun-16 12:59S 02°24' W 044°17'0 0.0
2017-Jun-16 12:29S 02°24' W 044°17'0 0.4
2017-Jun-16 11:59S 02°24' W 044°17'1 1.4
2017-Jun-16 11:30S 02°24' W 044°17'2 4.7
2017-Jun-16 11:00S 02°21' W 044°17'3 6.5
2017-Jun-16 10:30S 02°18' W 044°15'5 9.4
2017-Jun-16 10:00S 02°14' W 044°13'611.9
2017-Jun-16 09:30S 02°09' W 044°10'612.0
2017-Jun-16 09:00S 02°04' W 044°07'  
Track history (hours):
 
Tides and Currents Weather Stations Pressure Air Temp Water Temp Dewpoint Dewpoint Depression Visibility Wind Speed Wind Dir Waves Ship Positions

Cape Providence

Last reported at 2017-Jun-22 18:54 UTC. Time now 2017-Jul-24 14:23 UTC.
Position S 02°09' W 044°10'.
Warning: this ship's position is 31 days out of date.

Length 292 m; draft 18.5 m.

Type: Cargo ship. MMSI: 372773000.

Date/timePositionNaut miles runAvg speedWind from/ knotsBaromVisibWave heightAir tempDewpointWater temp
2017-Jun-22 18:54S 02°09' W 044°10'3 8.2
2017-Jun-22 18:30S 02°12' W 044°11'4 7.7
2017-Jun-22 18:00S 02°15' W 044°14'4 7.8
2017-Jun-22 17:30S 02°18' W 044°16'4 7.7
2017-Jun-22 17:00S 02°21' W 044°18'4 7.9
2017-Jun-22 16:30S 02°25' W 044°20'5 9.3
2017-Jun-22 16:00S 02°29' W 044°22'4 8.5
2017-Jun-22 15:30S 02°33' W 044°23'1 1.7
2017-Jun-22 14:57S 02°34' W 044°23'0 0.0
2017-Jun-22 13:57S 02°34' W 044°23'0 0.0
2017-Jun-22 13:30S 02°34' W 044°23'0 0.0
2017-Jun-22 12:54S 02°34' W 044°23'0 0.0
2017-Jun-22 12:24S 02°34' W 044°23'0 0.0
2017-Jun-22 11:45S 02°34' W 044°23'0 0.0
2017-Jun-22 04:28S 02°34' W 044°23'0 0.0
2017-Jun-22 03:49S 02°34' W 044°23'0 0.0
2017-Jun-22 03:30S 02°34' W 044°23'0 0.0
2017-Jun-22 02:55S 02°34' W 044°23'0 0.0
2017-Jun-22 02:30S 02°34' W 044°23'0 0.0
2017-Jun-22 01:42S 02°34' W 044°23'0 0.0
2017-Jun-22 01:25S 02°34' W 044°23'0 0.0
2017-Jun-22 00:48S 02°34' W 044°23'0 0.0
2017-Jun-22 00:28S 02°34' W 044°23'0 0.0
2017-Jun-22 00:00S 02°34' W 044°23'0 0.0
2017-Jun-21 23:16S 02°34' W 044°23'0 0.0
2017-Jun-21 23:00S 02°34' W 044°23'0 0.0
2017-Jun-21 22:30S 02°34' W 044°23'0 0.0
2017-Jun-21 22:00S 02°34' W 044°23'0 0.0
2017-Jun-21 20:46S 02°34' W 044°23'0 0.0
2017-Jun-21 20:27S 02°34' W 044°23'0 0.0
2017-Jun-21 20:00S 02°34' W 044°23'0 0.0
2017-Jun-21 19:25S 02°34' W 044°23'0 0.0
2017-Jun-21 19:00S 02°34' W 044°23'0 0.0
2017-Jun-21 18:30S 02°34' W 044°23'0 0.0
2017-Jun-21 18:00S 02°34' W 044°23'0 0.0
2017-Jun-21 17:30S 02°34' W 044°23'0 0.0
2017-Jun-21 17:00S 02°34' W 044°23'0 0.0
2017-Jun-21 16:30S 02°34' W 044°23'0 0.0
2017-Jun-21 16:00S 02°34' W 044°23'0 0.0
2017-Jun-21 15:27S 02°34' W 044°23'0 0.0
2017-Jun-21 15:00S 02°34' W 044°23'1 1.3
2017-Jun-21 14:00S 02°33' W 044°24'4 8.4
2017-Jun-21 13:30S 02°29' W 044°22'4 8.5
2017-Jun-21 13:00S 02°26' W 044°19'2 4.9
2017-Jun-21 12:30S 02°25' W 044°17'1 1.1
2017-Jun-21 11:59S 02°24' W 044°17'0 0.0
2017-Jun-21 11:29S 02°24' W 044°17'0 0.0
2017-Jun-21 10:59S 02°24' W 044°17'0 0.1
2017-Jun-21 10:29S 02°24' W 044°17'0 0.1
2017-Jun-21 09:59S 02°24' W 044°17'0 0.1
2017-Jun-21 09:29S 02°24' W 044°17'0 0.3
2017-Jun-21 08:59S 02°24' W 044°17'0 0.1
2017-Jun-21 08:29S 02°24' W 044°17'0 0.2
2017-Jun-21 07:59S 02°24' W 044°17'0 0.1
2017-Jun-21 07:29S 02°24' W 044°17'0 0.0
2017-Jun-21 06:57S 02°24' W 044°17'0 0.0
2017-Jun-21 06:29S 02°24' W 044°17'0 0.1
2017-Jun-21 05:59S 02°24' W 044°17'0 0.0
2017-Jun-21 05:29S 02°24' W 044°17'0 0.1
2017-Jun-21 04:59S 02°25' W 044°17'0 0.0
2017-Jun-21 04:30S 02°25' W 044°17'0 0.0
2017-Jun-21 03:59S 02°25' W 044°17'0 0.1
2017-Jun-21 03:29S 02°25' W 044°17'0 0.2
2017-Jun-21 02:57S 02°24' W 044°17'0 0.1
2017-Jun-21 01:39S 02°24' W 044°17'0 0.1
2017-Jun-21 01:18S 02°24' W 044°17'0 0.1
2017-Jun-21 00:51S 02°24' W 044°17'0 0.0
2017-Jun-21 00:30S 02°24' W 044°17'0 0.0
2017-Jun-20 23:57S 02°24' W 044°17'0 0.0
2017-Jun-20 23:27S 02°24' W 044°17'0 0.0
2017-Jun-20 22:59S 02°24' W 044°17'0 0.0
2017-Jun-20 22:29S 02°24' W 044°17'0 0.1
2017-Jun-20 21:59S 02°24' W 044°17'0 0.0
2017-Jun-20 21:29S 02°24' W 044°17'0 0.2
2017-Jun-20 20:59S 02°24' W 044°17'0 0.2
2017-Jun-20 20:27S 02°24' W 044°17'0 0.1
2017-Jun-20 20:00S 02°24' W 044°17'0 0.1
2017-Jun-20 19:15S 02°24' W 044°17'0 0.0
2017-Jun-20 18:54S 02°24' W 044°17'0 0.0
2017-Jun-20 18:27S 02°24' W 044°17'0 0.0
2017-Jun-20 17:59S 02°24' W 044°17'0 0.1
2017-Jun-20 17:29S 02°24' W 044°17'0 0.1
2017-Jun-20 16:59S 02°24' W 044°17'0 0.0
2017-Jun-20 16:29S 02°24' W 044°17'0 0.0
2017-Jun-20 15:59S 02°24' W 044°17'0 0.1
2017-Jun-20 15:29S 02°24' W 044°17'0 0.1
2017-Jun-20 14:59S 02°24' W 044°17'0 0.2
2017-Jun-20 14:29S 02°24' W 044°17'0 0.2
2017-Jun-20 13:29S 02°24' W 044°17'0 0.0
2017-Jun-20 12:20S 02°24' W 044°17'0 0.1
2017-Jun-20 11:59S 02°24' W 044°17'0 0.0
2017-Jun-20 11:29S 02°24' W 044°17'0 0.0
2017-Jun-20 11:00S 02°24' W 044°17'0 0.0
2017-Jun-20 10:26S 02°24' W 044°17'0 0.1
2017-Jun-20 09:59S 02°24' W 044°17'0 0.1
2017-Jun-20 09:29S 02°24' W 044°17'0 0.0
2017-Jun-20 08:59S 02°24' W 044°17'0 0.1
2017-Jun-20 08:29S 02°24' W 044°17'0 0.1
2017-Jun-20 07:59S 02°24' W 044°17'0 0.4
2017-Jun-20 07:29S 02°24' W 044°17'0 0.1
2017-Jun-20 06:59S 02°24' W 044°17'0 0.0
2017-Jun-20 06:29S 02°24' W 044°17'0 0.0
2017-Jun-20 05:59S 02°24' W 044°17'0 0.3
2017-Jun-20 05:29S 02°24' W 044°17'0 0.4
2017-Jun-20 04:59S 02°24' W 044°17'0 0.1
2017-Jun-20 04:29S 02°24' W 044°17'0 0.0
2017-Jun-20 03:59S 02°24' W 044°17'0 0.0
2017-Jun-20 03:29S 02°24' W 044°17'0 0.0
2017-Jun-20 02:59S 02°24' W 044°17'0 0.0
2017-Jun-20 02:29S 02°24' W 044°17'0 0.0
2017-Jun-20 01:59S 02°24' W 044°17'0 0.2
2017-Jun-20 01:29S 02°24' W 044°17'0 0.3
2017-Jun-20 00:59S 02°24' W 044°17'0 0.1
2017-Jun-20 00:29S 02°24' W 044°17'0 0.1
2017-Jun-19 23:59S 02°24' W 044°17'0 0.0
2017-Jun-19 23:29S 02°24' W 044°17'0 0.1
2017-Jun-19 23:00S 02°24' W 044°17'0 0.0
2017-Jun-19 22:29S 02°24' W 044°17'0 0.1
2017-Jun-19 21:59S 02°24' W 044°17'0 0.1
2017-Jun-19 21:26S 02°24' W 044°17'0 0.0
2017-Jun-19 20:59S 02°24' W 044°17'0 0.1
2017-Jun-19 20:29S 02°24' W 044°17'0 0.3
2017-Jun-19 19:59S 02°24' W 044°17'0 0.3
2017-Jun-19 19:29S 02°24' W 044°17'0 0.2
2017-Jun-19 18:59S 02°24' W 044°17'0 0.1
2017-Jun-19 18:29S 02°24' W 044°17'0 0.0
2017-Jun-19 18:00S 02°24' W 044°17'0 0.0
2017-Jun-19 17:29S 02°24' W 044°17'0 0.1
2017-Jun-19 16:59S 02°24' W 044°17'0 0.0
2017-Jun-19 16:29S 02°24' W 044°17'0 0.0
2017-Jun-19 15:59S 02°24' W 044°17'0 0.0
2017-Jun-19 15:29S 02°24' W 044°17'0 0.0
2017-Jun-19 14:59S 02°24' W 044°17'0 0.0
2017-Jun-18 20:47S 02°24' W 044°17'0 0.1
2017-Jun-18 20:29S 02°24' W 044°17'0 0.0
2017-Jun-18 19:59S 02°24' W 044°17'0 0.0
2017-Jun-18 19:29S 02°24' W 044°17'0 0.3
2017-Jun-18 18:59S 02°24' W 044°17'0 0.2
2017-Jun-18 18:29S 02°24' W 044°17'0 0.2
2017-Jun-18 17:59S 02°24' W 044°17'0 0.2
2017-Jun-18 17:27S 02°24' W 044°17'0 0.1
2017-Jun-18 16:59S 02°24' W 044°17'0 0.1
2017-Jun-18 16:29S 02°24' W 044°17'0 0.0
2017-Jun-18 15:50S 02°24' W 044°17'0 0.0
2017-Jun-18 15:29S 02°24' W 044°17'0 0.0
2017-Jun-18 14:59S 02°24' W 044°17'0 0.0
2017-Jun-18 14:29S 02°24' W 044°17'0 0.0
2017-Jun-18 13:59S 02°24' W 044°17'0 0.0
2017-Jun-18 13:29S 02°24' W 044°17'0 0.1
2017-Jun-18 12:59S 02°24' W 044°17'0 0.2
2017-Jun-18 12:29S 02°24' W 044°17'0 0.4
2017-Jun-18 11:59S 02°24' W 044°17'0 0.1
2017-Jun-18 11:29S 02°24' W 044°17'0 0.0
2017-Jun-18 10:59S 02°24' W 044°17'0 0.0
2017-Jun-18 10:29S 02°24' W 044°17'0 0.0
2017-Jun-18 09:59S 02°24' W 044°17'0 0.0
2017-Jun-18 09:29S 02°24' W 044°17'0 0.0
2017-Jun-18 09:00S 02°24' W 044°17'0 0.0
2017-Jun-18 08:29S 02°24' W 044°17'0 0.1
2017-Jun-18 07:59S 02°24' W 044°17'0 0.1
2017-Jun-18 07:29S 02°24' W 044°17'0 0.0
2017-Jun-18 06:59S 02°24' W 044°17'0 0.2
2017-Jun-18 06:29S 02°24' W 044°17'0 0.1
2017-Jun-18 05:59S 02°24' W 044°17'0 0.4
2017-Jun-18 05:29S 02°24' W 044°17'0 0.1
2017-Jun-18 04:59S 02°24' W 044°17'0 0.1
2017-Jun-18 04:29S 02°24' W 044°17'0 0.0
2017-Jun-18 03:59S 02°24' W 044°17'0 0.0
2017-Jun-18 03:29S 02°24' W 044°17'0 0.0
2017-Jun-18 02:59S 02°24' W 044°17'0 0.0
2017-Jun-18 02:29S 02°24' W 044°17'0 0.0
2017-Jun-18 01:59S 02°24' W 044°17'0 0.0
2017-Jun-18 01:29S 02°24' W 044°17'0 0.0
2017-Jun-18 00:59S 02°24' W 044°17'0 0.0
2017-Jun-18 00:29S 02°24' W 044°17'0 0.1
2017-Jun-17 23:59S 02°25' W 044°17'0 0.2
2017-Jun-17 23:29S 02°24' W 044°17'0 0.4
2017-Jun-17 22:59S 02°24' W 044°17'0 0.0
2017-Jun-17 22:29S 02°24' W 044°17'0 0.1
2017-Jun-17 21:59S 02°24' W 044°17'0 0.0
2017-Jun-17 21:29S 02°24' W 044°17'0 0.0
2017-Jun-17 20:59S 02°24' W 044°17'0 0.1
2017-Jun-17 20:29S 02°24' W 044°17'0 0.0
2017-Jun-17 19:59S 02°24' W 044°17'0 0.1
2017-Jun-17 19:29S 02°24' W 044°17'0 0.0
2017-Jun-17 18:59S 02°24' W 044°17'0 0.1
2017-Jun-17 18:29S 02°24' W 044°17'0 0.1
2017-Jun-17 17:59S 02°24' W 044°17'0 0.2
2017-Jun-17 17:29S 02°24' W 044°17'0 0.0
2017-Jun-17 16:59S 02°24' W 044°17'0 0.2
2017-Jun-17 16:29S 02°24' W 044°17'0 0.1
2017-Jun-17 15:59S 02°24' W 044°17'0 0.1
2017-Jun-17 15:29S 02°24' W 044°17'0 0.0
2017-Jun-17 14:59S 02°24' W 044°17'0 0.0
2017-Jun-17 13:59S 02°24' W 044°17'0 0.0
2017-Jun-17 13:29S 02°24' W 044°17'0 0.0
2017-Jun-17 12:59S 02°24' W 044°17'0 0.0
2017-Jun-17 12:29S 02°24' W 044°17'0 0.0
2017-Jun-17 11:59S 02°24' W 044°17'0 0.1
2017-Jun-17 11:26S 02°24' W 044°17'0 0.4
2017-Jun-17 10:59S 02°24' W 044°17'0 0.1
2017-Jun-17 10:29S 02°24' W 044°17'0 0.1
2017-Jun-17 09:59S 02°24' W 044°17'0 0.1
2017-Jun-17 09:29S 02°24' W 044°17'0 0.0
2017-Jun-17 08:59S 02°24' W 044°17'0 0.0
2017-Jun-17 08:29S 02°24' W 044°17'0 0.1
2017-Jun-17 07:59S 02°24' W 044°17'0 0.1
2017-Jun-17 07:29S 02°24' W 044°17'0 0.1
2017-Jun-17 06:59S 02°24' W 044°17'0 0.0
2017-Jun-17 06:29S 02°24' W 044°17'0 0.0
2017-Jun-17 05:59S 02°24' W 044°17'0 0.1
2017-Jun-17 05:29S 02°24' W 044°17'0 0.4
2017-Jun-17 04:59S 02°24' W 044°17'0 0.3
2017-Jun-17 04:20S 02°24' W 044°17'0 0.1
2017-Jun-17 03:59S 02°24' W 044°17'0 0.1
2017-Jun-17 03:29S 02°25' W 044°17'0 0.1
2017-Jun-17 02:59S 02°24' W 044°17'0 0.0
2017-Jun-17 02:29S 02°24' W 044°17'0 0.0
2017-Jun-17 01:59S 02°24' W 044°17'0 0.0
2017-Jun-17 01:29S 02°24' W 044°17'0 0.0
2017-Jun-17 00:59S 02°24' W 044°17'0 0.0
2017-Jun-17 00:29S 02°24' W 044°17'0 0.0
2017-Jun-16 23:59S 02°24' W 044°17'0 0.0
2017-Jun-16 23:29S 02°24' W 044°17'0 0.1
2017-Jun-16 22:59S 02°24' W 044°17'0 0.1
2017-Jun-16 22:29S 02°24' W 044°17'0 0.3
2017-Jun-16 21:56S 02°24' W 044°17'0 0.3
2017-Jun-16 21:29S 02°24' W 044°17'0 0.1
2017-Jun-16 20:59S 02°24' W 044°17'0 0.1
2017-Jun-16 20:29S 02°24' W 044°17'0 0.1
2017-Jun-16 20:00S 02°24' W 044°17'0 0.1
2017-Jun-16 19:30S 02°24' W 044°17'0 0.0
2017-Jun-16 18:59S 02°24' W 044°17'0 0.2
2017-Jun-16 18:30S 02°24' W 044°17'0 0.0
2017-Jun-16 18:00S 02°24' W 044°17'0 0.0
2017-Jun-16 17:26S 02°24' W 044°17'0 0.1
2017-Jun-16 16:59S 02°24' W 044°17'0 0.0
2017-Jun-16 16:29S 02°24' W 044°17'0 0.2
2017-Jun-16 15:59S 02°24' W 044°17'0 0.3
2017-Jun-16 15:29S 02°24' W 044°17'0 0.2
2017-Jun-16 14:59S 02°24' W 044°17'0 0.1
2017-Jun-16 13:59S 02°24' W 044°17'0 0.1
2017-Jun-16 13:29S 02°24' W 044°17'0 0.0
2017-Jun-16 12:59S 02°24' W 044°17'0 0.0
2017-Jun-16 12:29S 02°24' W 044°17'0 0.4
2017-Jun-16 11:59S 02°24' W 044°17'1 1.4
2017-Jun-16 11:30S 02°24' W 044°17'2 4.7
2017-Jun-16 11:00S 02°21' W 044°17'3 6.5
2017-Jun-16 10:30S 02°18' W 044°15'5 9.4
2017-Jun-16 10:00S 02°14' W 044°13'611.9
2017-Jun-16 09:30S 02°09' W 044°10'612.0
2017-Jun-16 09:00S 02°04' W 044°07'  

Dump ship's entire track history